Terminal Aerodrome Forecast
Issued by NWS Jackson, MS

Home | Current Version | Previous Version | Text Only | Print | Product List | Glossary On
Versions: 1 2 3 4 5 6 7 8 9 10 11 12 13 14 15 16
000
FTUS44 KJAN 181124
TAFHBG
TAF
KHBG 181124Z 1812/1912 05005KT P6SM VCSH OVC006
     FM181500 14007KT 6SM -TSRA BKN015 BKN040CB
     FM181800 13006KT 2SM TSRA SCT007 OVC015CB
     FM190300 14006KT P6SM -RA BKN008 OVC100=

USA.gov is the U.S. government's official web portal to all federal, state and local government web resources and services.